Heincke — DBCK — position and weather

sailwx.info

Track history (hours):
 
Tides and Currents Weather Stations Pressure Air Temp Water Temp Dewpoint Dewpoint Depression Visibility Wind Speed Wind Dir Waves Ship Positions

Oceanographic research ship Heincke (Germany)

Detailed information on ship capabilities available from University of Delaware's Ocean Information Center and ARCUS's ALIAS (Arctic Logistics Information and Support) project.

Last reported at 2017-Dec-18 08:00 UTC. Time now 2017-Dec-18 09:16 UTC.
Position N 54°12' E 007°48'.

Length 54.6 m; beam 12.5 m; draft 4 m.

Type: Other ship. MMSI: 211208720.

Wind from 170 at 6 knots

Barometer 1020.9 mb
Air temperature 3.6 ° C
Dewpoint 1.8 ° C
Water temperature 7.3 ° C

Date/timePositionNaut miles runAvg speedWind from/ knotsBaromVisibWave heightAir tempDewpointWater temp
2017-Dec-18 08:00N 54°12' E 007°48'0 0.0 170 / 61020.9 3.6 1.8 7.3
2017-Dec-18 07:00N 54°12' E 007°48'6 6.0 180 / 101019.6 3.7 2.0 6.7
2017-Dec-18 06:00N 54°06' E 007°48'6 6.0 180 / 171018.2 3.1 1.9 6.9
2017-Dec-18 05:00N 54°12' E 007°48'6 6.0 180 / 191017.2 3.2 1.6 7.2
2017-Dec-18 04:00N 54°18' E 007°48'1212.0 180 / 231016.1 3.5 2.2 7.0
2017-Dec-18 03:00N 54°30' E 007°48'6 6.0 180 / 271015.4 3.7 2.6 6.2
2017-Dec-18 02:00N 54°36' E 007°48'7 6.9 180 / 271014.9 3.6 2.1 5.7
2017-Dec-18 01:00N 54°42' E 007°54'7 6.9 190 / 271015.0 3.5 2.3 6.2
2017-Dec-18 00:00N 54°48' E 008°00'9 9.2 200 / 271015.1 4.2 2.5 6.1
2017-Dec-17 23:00N 54°54' E 008°12'0 0.0 190 / 251015.4 5.2 3.5 5.4
2017-Dec-17 22:00N 54°54' E 008°12'0 0.0 200 / 211016.4 5.5 3.8 5.4
2017-Dec-17 21:00N 54°54' E 008°12'0 0.0 210 / 211016.7 5.7 3.5 5.4
2017-Dec-17 20:00N 54°54' E 008°12'0 0.0 190 / 171016.8 5.6 3.2 5.4
2017-Dec-17 19:00N 54°54' E 008°12'0 0.0 200 / 161017.0 5.9 3.4 5.5
2017-Dec-17 18:00N 54°54' E 008°12'0 0.0 190 / 141017.6 5.6 3.1 5.5
2017-Dec-17 17:00N 54°54' E 008°12'0 0.0 190 / 191017.6 5.0 3.5 5.5
2017-Dec-17 16:00N 54°54' E 008°12'0 0.0 190 / 171018.2 4.9 3.2 5.5
2017-Dec-17 15:00N 54°54' E 008°12'0 0.0 190 / 141019.0 4.7 2.9 5.4
2017-Dec-17 14:00N 54°54' E 008°12'0 0.0 190 / 141019.2 4.4 2.3 5.3
2017-Dec-17 13:00N 54°54' E 008°12'0 0.0 190 / 121019.4 4.5 1.3 5.2
2017-Dec-17 12:00N 54°54' E 008°12'0 0.0 190 / 101019.5 4.1 0.4 5.2
2017-Dec-17 11:00N 54°54' E 008°12'0 0.0 180 / 81019.8 4.4-0.2 5.3
2017-Dec-17 10:00N 54°54' E 008°12'0 0.0 160 / 41019.9 3.2-0.3 5.2
2017-Dec-17 09:00N 54°54' E 008°12'0 0.0 090 / 61019.1 3.6 0.4 5.2
2017-Dec-17 08:00N 54°54' E 008°12'0 0.0 040 / 101018.8 3.5 0.4 5.3
2017-Dec-17 07:00N 54°54' E 008°12'0 0.0 030 / 121018.2 3.4 0.8 5.2
2017-Dec-17 06:00N 54°54' E 008°12'0 0.0 020 / 141017.4 4.1 1.3 5.3
2017-Dec-17 05:00N 54°54' E 008°12'0 0.0 360 / 161017.0 4.5 1.4 5.4
2017-Dec-17 04:00N 54°54' E 008°12'0 0.0 010 / 141015.7 4.0 0.6 5.5
2017-Dec-17 03:00N 54°54' E 008°12'0 0.0 350 / 171015.1 4.2 0.1 5.4
2017-Dec-17 02:00N 54°54' E 008°12'0 0.0 360 / 171014.3 4.1 0.2 5.3
2017-Dec-17 01:00N 54°54' E 008°12'0 0.0 010 / 171013.6 4.4-0.5 5.3
2017-Dec-17 00:00N 54°54' E 008°12'0 0.0 010 / 161012.5 4.1-2.3 5.3
2017-Dec-16 23:00N 54°54' E 008°12'0 0.0 010 / 141011.5 4.4-0.8 5.3
2017-Dec-16 22:00N 54°54' E 008°12'0 0.0 360 / 161010.6 4.9 0.1 5.4
2017-Dec-16 21:00N 54°54' E 008°12'0 0.0 350 / 141009.9 5.2 1.3 5.4
2017-Dec-16 20:00N 54°54' E 008°12'0 0.0 350 / 121009.6 5.3 1.1 5.4
2017-Dec-16 19:00N 54°54' E 008°12'0 0.0 340 / 171008.8 5.7 1.1 5.3
2017-Dec-16 18:00N 54°54' E 008°12'0 0.0 320 / 161008.2 5.3 1.4 5.3
2017-Dec-16 17:00N 54°54' E 008°12'0 0.0 320 / 211007.6 4.9 1.3 5.4
2017-Dec-16 16:00N 54°54' E 008°12'0 0.0 320 / 211006.8 4.6 1.6 5.5
2017-Dec-16 15:00N 54°54' E 008°12'236.4 310 / 191005.9 5.5-0.0 5.4
2017-Dec-16 14:56N 54°56' E 008°11'2 2.4
2017-Dec-16 14:00N 54°54' E 008°12'0 0.0 310 / 171005.2 6.1 1.8 5.3
2017-Dec-16 13:00N 54°54' E 008°12'0 0.0 310 / 141004.9 6.2 1.7 5.4
2017-Dec-16 12:00N 54°54' E 008°12'0 0.0 290 / 141004.5 5.4 1.8 5.3
2017-Dec-16 11:00N 54°54' E 008°12'0 0.0 290 / 141004.0 5.6 2.3 5.4
2017-Dec-16 10:00N 54°54' E 008°12'0 0.0 310 / 121003.7 5.6 1.4 5.4
2017-Dec-16 09:00N 54°54' E 008°12'2 3.6 320 / 141003.3 5.6 1.1 5.4
2017-Dec-16 08:28N 54°56' E 008°11'2 4.0
2017-Dec-16 08:00N 54°54' E 008°12'0 0.0 320 / 141002.7 5.4 1.9 5.3
2017-Dec-16 07:00N 54°54' E 008°12'0 0.0 310 / 141002.1 5.5 2.1 5.3
2017-Dec-16 06:00N 54°54' E 008°12'0 0.0 310 / 101001.6 5.5 1.8 5.3
2017-Dec-16 05:00N 54°54' E 008°12'0 0.0 320 / 121001.0 5.3 1.9 5.3
2017-Dec-16 04:00N 54°54' E 008°12'0 0.0 320 / 141000.9 5.7 2.0 5.3
2017-Dec-16 03:00N 54°54' E 008°12'0 0.0 330 / 121000.4 6.1 2.5 5.3
2017-Dec-16 02:00N 54°54' E 008°12'0 0.0 320 / 14999.7 5.9 2.6 5.4
2017-Dec-16 01:00N 54°54' E 008°12'0 0.0 320 / 19999.1 5.8 2.4 5.4
2017-Dec-16 00:00N 54°54' E 008°12'0 0.0 020 / 6999.3 4.7 1.7 5.4
2017-Dec-15 23:00N 54°54' E 008°12'0 0.0 330 / 10999.0 6.2 2.1 5.3
2017-Dec-15 22:00N 54°54' E 008°12'0 0.0 320 / 10998.4 6.3 1.8 5.3
2017-Dec-15 21:00N 54°54' E 008°12'0 0.0 310 / 4998.3 4.5 2.5 5.3
2017-Dec-15 20:00N 54°54' E 008°12'9 9.2 240 / 8997.7 5.6 3.3 5.3
2017-Dec-15 19:00N 54°48' E 008°00'1010.4 290 / 4997.6 6.0 3.1 6.6
2017-Dec-15 18:00N 54°48' E 007°42'910.1 250 / 12997.2 5.6 3.4 7.5
2017-Dec-15 17:08N 54°43' E 007°30'425.7
2017-Dec-15 17:00N 54°42' E 007°24'2336.4 220 / 8997.0 5.2 3.1 8.1
2017-Dec-15 16:59N 54°42' E 007°28'511.0
2017-Dec-15 16:29N 54°40' E 007°19'817.0
2017-Dec-15 16:00N 54°36' E 007°06'0 0.0 240 / 10996.5 5.8 3.0 8.3
2017-Dec-15 15:00N 54°36' E 007°06'0 0.0 320 / 12996.2 4.2 2.7 8.3
2017-Dec-15 14:00N 54°36' E 007°06'0 0.0 240 / 16995.0 5.9 3.9 8.3
2017-Dec-15 13:00N 54°36' E 007°06'0 0.0 230 / 14994.3 5.6 3.5 8.3
2017-Dec-15 12:00N 54°36' E 007°06'0 0.0 230 / 16993.9 5.9 3.5 8.3
2017-Dec-15 11:00N 54°36' E 007°06'0 0.0 220 / 16993.4 5.5 3.0 8.4
2017-Dec-15 10:00N 54°36' E 007°06'0 0.0 220 / 17992.8 4.7 2.3 8.4
2017-Dec-15 09:00N 54°36' E 007°06'0 0.0 230 / 17991.8 6.0 3.2 8.4
2017-Dec-15 08:00N 54°36' E 007°06'0 0.0 220 / 14991.1 6.5 2.8 8.4
2017-Dec-15 07:00N 54°36' E 007°06'3 3.5 210 / 12990.3 6.2 3.6 8.4
2017-Dec-15 06:00N 54°36' E 007°00'9 9.2 220 / 14989.4 6.2 3.5 8.4
2017-Dec-15 05:00N 54°42' E 006°48'1212.0 240 / 16988.6 7.1 0.9 8.7
2017-Dec-15 04:00N 54°48' E 006°30'1212.0 240 / 16987.6 7.1 0.5 9.0
2017-Dec-15 03:00N 54°54' E 006°12'7 6.9 250 / 12987.1 7.2-0.2 9.1
2017-Dec-15 02:00N 54°54' E 006°00'1212.0
2017-Dec-15 01:00N 55°00' E 005°42'4 4.4 230 / 19985.7 7.3 2.1 9.2
2017-Dec-15 00:07N 55°02' E 005°36'541.4
2017-Dec-15 00:00N 55°06' E 005°30'1010.3 240 / 16985.3 7.0 2.8 8.8
2017-Dec-14 23:00N 55°06' E 005°12'9 9.1 240 / 23984.4 6.4 3.0 8.5
2017-Dec-14 22:00N 55°12' E 005°00'1211.9 240 / 25984.1 6.0 2.8 8.5
2017-Dec-14 21:00N 55°18' E 004°42'7 6.8 240 / 21983.7 6.4 3.1 8.4
2017-Dec-14 20:00N 55°18' E 004°30'9 9.1 230 / 16982.9 6.5 3.6 7.9
2017-Dec-14 19:00N 55°24' E 004°18'3 3.4 240 / 19982.5 6.5 3.3 7.8
2017-Dec-14 18:00N 55°24' E 004°12'7 6.9 200 / 10982.6 4.9 2.6 7.8
2017-Dec-14 17:00N 55°30' E 004°06'3 3.4 230 / 21982.1 5.0 2.4 7.9
2017-Dec-14 16:00N 55°30' E 004°00'7 6.9 220 / 21982.0 5.9 2.8 8.0
2017-Dec-14 15:00N 55°36' E 003°54'9 9.0 230 / 19981.9 6.1 1.5 8.1
2017-Dec-14 14:00N 55°42' E 003°42'7 6.9 240 / 21981.9 6.4 1.5 8.0
2017-Dec-14 13:00N 55°36' E 003°48'3 3.4 240 / 21 5.9 1.9
2017-Dec-14 12:00N 55°36' E 003°54'9 9.1 250 / 21 6.4 1.3
2017-Dec-14 11:00N 55°30' E 004°06'3 3.4 250 / 21 6.2 2.0
2017-Dec-14 10:00N 55°30' E 004°12'7 6.9 260 / 23982.6 6.2 2.1 7.8
2017-Dec-14 09:00N 55°24' E 004°18'0 0.0 260 / 23982.1 6.1 1.8 7.7
2017-Dec-14 08:00N 55°24' E 004°18'7 6.9 270 / 21981.5 6.2 1.7 7.8
2017-Dec-14 07:00N 55°30' E 004°12'3 3.4 270 / 19981.1 6.3 1.5 7.8
2017-Dec-14 06:00N 55°30' E 004°06'7 6.9 270 / 21980.7 5.6 1.8 7.9
2017-Dec-14 05:00N 55°36' E 004°00'7 6.8 280 / 19980.4 6.2-1.1 8.1
2017-Dec-14 04:00N 55°36' E 003°48'7 6.9 280 / 19980.1 6.0 1.1 8.1
2017-Dec-14 03:00N 55°42' E 003°42'9 9.0 270 / 27979.5 5.8-1.2 8.0
2017-Dec-14 02:00N 55°36' E 003°54'3 3.4 270 / 19979.4 6.3 1.7 8.1
2017-Dec-14 01:00N 55°36' E 004°00'7 6.9 310 / 21979.0 5.7 2.5 8.0
2017-Dec-14 00:00N 55°30' E 004°06'3 3.4 280 / 25978.7 6.4 1.1 7.9
2017-Dec-13 23:00N 55°30' E 004°12'7 6.9 290 / 31978.4 5.0 1.1 7.7
2017-Dec-13 22:00N 55°24' E 004°18'0 0.0 270 / 19978.5 6.5 4.2 8.0
2017-Dec-13 21:00N 55°24' E 004°18'3 3.4 290 / 25978.9 4.9 3.9 8.0
2017-Dec-13 20:00N 55°24' E 004°12'7 6.9 270 / 19979.4 6.5 4.3 7.8
2017-Dec-13 19:00N 55°30' E 004°06'7 6.9 250 / 23979.8 6.4 4.5 7.8
2017-Dec-13 18:00N 55°36' E 004°00'3 3.4 220 / 25980.3 6.7 5.4 8.0
2017-Dec-13 17:00N 55°36' E 003°54'9 9.0 210 / 23981.3 7.3 5.8 8.1
2017-Dec-13 16:00N 55°42' E 003°42'7 6.9 210 / 25982.6 7.0 5.4 8.1
2017-Dec-13 15:00N 55°36' E 003°48'3 3.4 220 / 25984.6 7.2 5.5 8.1
2017-Dec-13 14:00N 55°36' E 003°54'9 9.1 210 / 21986.0 7.3 5.6 8.0
2017-Dec-13 13:00N 55°30' E 004°06'3 3.4 220 / 21987.7 7.1 5.2 7.8
2017-Dec-13 12:00N 55°30' E 004°12'7 6.9 230 / 21989.2 7.2 4.9 7.9
2017-Dec-13 11:00N 55°24' E 004°18'3 3.4 230 / 19990.4 7.3 4.7 8.0
2017-Dec-13 10:00N 55°24' E 004°12'0 0.0 230 / 23991.0 7.3 5.1 8.0
2017-Dec-13 09:00N 55°24' E 004°12'0 0.0 240 / 23991.5 7.3 4.9 8.0
2017-Dec-13 08:00N 55°24' E 004°12'0 0.0 240 / 25992.1 7.3 5.0 8.0
2017-Dec-13 07:00N 55°24' E 004°12'0 0.0 240 / 23992.7 7.3 4.4 8.0
2017-Dec-13 06:00N 55°24' E 004°12'0 0.0 240 / 29993.3 7.3 5.1 7.9
2017-Dec-13 05:00N 55°24' E 004°12'0 0.0 210 / 37993.3 6.6 4.9 7.9
2017-Dec-13 04:00N 55°24' E 004°12'0 0.0 210 / 37994.7 6.2 4.2 7.9
2017-Dec-13 03:00N 55°24' E 004°12'3 3.4 210 / 35996.2 6.6 3.3 7.9
2017-Dec-13 02:00N 55°24' E 004°18'3 3.4 210 / 35997.9 6.9 3.8 7.9
2017-Dec-13 01:00N 55°24' E 004°24'3 3.4 220 / 31998.6 6.8 2.6 8.0
2017-Dec-13 00:00N 55°24' E 004°18'9 9.1 220 / 29999.7 6.5 2.7 7.9
2017-Dec-12 23:00N 55°30' E 004°06'7 6.9 220 / 271000.5 6.3 2.1 7.9
2017-Dec-12 22:00N 55°36' E 004°00'3 3.4 230 / 291000.9 6.2 4.2 8.0
2017-Dec-12 21:00N 55°36' E 003°54'7 6.9 240 / 271001.5 6.1 2.8 8.0
2017-Dec-12 20:00N 55°42' E 003°48'0 0.0 230 / 251001.5 6.6 1.9 8.1
2017-Dec-12 19:00N 55°42' E 003°48'7 6.9 230 / 271002.1 6.1 2.1 8.1
2017-Dec-12 18:00N 55°36' E 003°54'7 6.9 240 / 271002.5 6.7 1.5 8.0
2017-Dec-12 17:00N 55°30' E 004°00'7 6.8 250 / 251002.6 6.8 2.2 7.9
2017-Dec-12 16:00N 55°30' E 004°12'7 6.9 240 / 231002.6 6.4 2.8 7.9
2017-Dec-12 15:00N 55°24' E 004°18'3 3.4 260 / 171002.7 6.6 2.9 7.9
2017-Dec-12 14:00N 55°24' E 004°24'3 3.4 250 / 211002.1 6.9 2.0 8.0
2017-Dec-12 13:00N 55°24' E 004°18'9 9.1 260 / 161002.0 6.8 0.9 7.9
2017-Dec-12 12:00N 55°30' E 004°06'7 6.9 270 / 121001.9 6.6 0.3 7.9
2017-Dec-12 11:00N 55°36' E 004°00'3 3.4 290 / 121001.8 6.4-1.5 8.0
2017-Dec-12 10:00N 55°36' E 003°54'7 6.9 310 / 81001.2 6.4-1.8 8.0
2017-Dec-12 09:00N 55°42' E 003°48'0 0.0 340 / 121000.6 6.5-1.1 8.1
2017-Dec-12 08:00N 55°42' E 003°48'7 6.9 340 / 141000.1 5.9-0.7 8.1
2017-Dec-12 07:00N 55°36' E 003°54'3 3.4 350 / 17999.2 5.5-2.0 8.1
2017-Dec-12 06:00N 55°36' E 004°00'9 9.1 010 / 19998.1 5.2-1.3 8.0
2017-Dec-12 05:00N 55°30' E 004°12'7 6.9 010 / 23996.8 5.1-1.3 8.0
2017-Dec-12 04:00N 55°24' E 004°18'3 3.4 010 / 25995.4 5.1-1.8 7.9
2017-Dec-12 03:00N 55°24' E 004°24'9 9.1 010 / 27994.8 5.1-1.2 8.0
2017-Dec-12 02:00N 55°30' E 004°12'3 3.4 020 / 31993.9 5.2 0.2 8.0
2017-Dec-12 01:00N 55°30' E 004°06'7 6.9 020 / 25993.2 5.2-0.5 8.1
2017-Dec-12 00:00N 55°36' E 004°00'3 3.4 020 / 14993.6 3.5 1.8 8.1
2017-Dec-11 23:00N 55°36' E 003°54'7 6.9 020 / 23993.4 4.5 0.4 8.1
2017-Dec-11 22:00N 55°42' E 003°48'7 6.9 020 / 14992.8 5.1 0.2 8.2
2017-Dec-11 21:00N 55°36' E 003°54'3 3.4 030 / 12992.2 3.3 0.5 8.1
2017-Dec-11 20:00N 55°36' E 004°00'7 6.9 030 / 23991.2 3.2 1.3 8.1
2017-Dec-11 19:00N 55°30' E 004°06'3 3.4 050 / 17990.2 5.3-0.5 8.1
2017-Dec-11 18:00N 55°30' E 004°12'7 6.9 020 / 16989.6 4.5 0.5 8.1
2017-Dec-11 17:00N 55°24' E 004°18'3 3.4 050 / 16989.1 4.9-1.4 8.0
2017-Dec-11 16:00N 55°24' E 004°24'3 3.4 070 / 16988.7 4.6-1.8 8.1
2017-Dec-11 15:00N 55°24' E 004°18'7 6.9 080 / 17988.4 4.6-4.7 8.0
2017-Dec-11 14:00N 55°30' E 004°12'3 3.4 090 / 19987.6 4.9-2.4 8.1
2017-Dec-11 13:00N 55°30' E 004°06'7 6.9 100 / 19987.5 4.9-1.5 8.1
2017-Dec-11 12:00N 55°36' E 004°00'3 3.4 060 / 14987.9 4.4 1.0 8.2
2017-Dec-11 11:00N 55°36' E 003°54'7 6.9 060 / 12988.2 3.9 1.3 8.2
2017-Dec-11 10:00N 55°42' E 003°48'7 6.9 070 / 10988.1 3.9 0.4 8.2
2017-Dec-11 09:00N 55°36' E 003°54'3 3.4 080 / 16987.2 3.2 1.0 8.2
2017-Dec-11 08:00N 55°36' E 004°00'7 6.9 040 / 16986.0 3.8 0.4 8.2
2017-Dec-11 07:00N 55°30' E 004°06'3 3.4 030 / 19985.7 2.9 1.0 8.2
2017-Dec-11 06:00N 55°30' E 004°12'7 6.9 030 / 10986.1 3.3 0.7 8.1
2017-Dec-11 05:00N 55°24' E 004°18'3 3.4 360 / 14985.2 3.0 1.0 8.1
2017-Dec-11 04:00N 55°24' E 004°24'3 3.4 020 / 10984.7 3.6 1.3 8.1
2017-Dec-11 03:00N 55°24' E 004°18'7 6.9 030 / 14983.9 3.5 1.0 8.1
2017-Dec-11 02:00N 55°30' E 004°12'3 3.4 030 / 12983.3 3.7 0.1 8.1
2017-Dec-11 01:00N 55°30' E 004°06'7 6.9 010 / 10982.6 3.8-0.0 8.2
2017-Dec-11 00:00N 55°36' E 004°00'7 6.9 020 / 21982.0 2.2 0.4 8.2
2017-Dec-10 23:00N 55°42' E 003°54'3 3.4 030 / 17981.5 2.6 0.8 8.3
2017-Dec-10 22:00N 55°42' E 003°48'3 3.4 060 / 12980.7 3.7-1.2 8.4
2017-Dec-10 21:00N 55°42' E 003°54'7 6.9 060 / 14980.3 3.5-0.8 8.3
2017-Dec-10 20:00N 55°36' E 004°00'7 6.9 070 / 19979.7 1.9 0.7 8.2
2017-Dec-10 19:00N 55°30' E 004°06'3 3.4 090 / 17979.3 3.0 0.7 8.2
2017-Dec-10 18:00N 55°30' E 004°12'9 9.1 060 / 10979.0 4.3-1.8 8.2
2017-Dec-10 17:00N 55°24' E 004°24'3 3.4 080 / 12979.0 4.3-1.8 8.2
2017-Dec-10 16:00N 55°24' E 004°30'9 9.1 090 / 10979.6 4.0-2.5 8.3
2017-Dec-10 15:00N 55°18' E 004°42'9 9.1 070 / 8979.5 4.0-2.0 8.5
2017-Dec-10 14:00N 55°12' E 004°54'9 9.1 110 / 12980.2 3.7-0.8 9.1
2017-Dec-10 13:00N 55°06' E 005°06'1211.9 120 / 10981.5 3.3-0.1 9.2
2017-Dec-10 12:00N 55°00' E 005°24'7 6.9 080 / 6982.8 2.6-0.0 9.7
2017-Dec-10 11:00N 55°00' E 005°36'9 9.1 984.2 3.3-0.6 9.6
2017-Dec-10 10:00N 54°54' E 005°48'9 9.2 220 / 6985.9 4.2-1.3 9.9
2017-Dec-10 09:00N 54°48' E 006°00'1212.0 260 / 6987.5 3.1-0.4 9.7
2017-Dec-10 08:00N 54°42' E 006°18'9 9.2 210 / 21988.4 3.6 0.7 9.7
2017-Dec-10 07:00N 54°36' E 006°30'9 9.2 230 / 21990.1 3.4 1.4 9.6
2017-Dec-10 06:00N 54°30' E 006°42'3 3.5 230 / 25991.2 3.6 1.8 9.5
2017-Dec-10 05:00N 54°30' E 006°48'7 6.9 220 / 29992.5 2.8 2.0 9.3
2017-Dec-10 04:00N 54°24' E 006°54'7 7.0 260 / 16994.1 4.5-0.3 9.1
2017-Dec-10 03:00N 54°24' E 007°06'7 6.9 280 / 27995.3 2.2 0.4 8.8
2017-Dec-10 02:00N 54°18' E 007°12'0 0.0 280 / 21996.6 2.8 2.6 8.8
2017-Dec-10 01:00N 54°18' E 007°12'4 3.5 270 / 21997.6 2.5 2.3 8.5
2017-Dec-10 00:00N 54°18' E 007°18'7 6.9 260 / 23998.4 3.9-0.3 8.4
2017-Dec-09 23:00N 54°12' E 007°24'7 7.0 270 / 21999.4 2.9 0.9 8.5
2017-Dec-09 22:00N 54°06' E 007°30'4 3.5 270 / 291000.3 3.1 2.8 8.5
2017-Dec-09 21:00N 54°06' E 007°36'1312.5 260 / 331001.2 3.7 2.3 8.6
2017-Dec-09 20:00N 53°54' E 007°42'4 3.5 270 / 231002.1 4.0 2.1 8.1
2017-Dec-09 19:00N 53°54' E 007°48'1 4.5 280 / 251002.2 3.6 1.7 7.8
2017-Dec-09 18:45N 53°53' E 007°47'1 5.9
2017-Dec-09 18:30N 53°53' E 007°50'612.3
2017-Dec-09 18:00N 53°54' E 008°00'3131.8 220 / 251002.8 2.8 2.7 6.9
2017-Dec-09 17:58N 53°52' E 007°57'5 9.7
2017-Dec-09 17:30N 53°51' E 008°04'2 4.7
2017-Dec-09 17:00N 53°49' E 008°07'3271.6
2017-Dec-09 17:00N 53°48' E 008°12'3 6.3 250 / 211003.6 3.0 2.5 6.3
2017-Dec-09 16:30N 53°45' E 008°13'5 9.7
2017-Dec-09 16:00N 53°42' E 008°20'3233.2
2017-Dec-09 16:00N 53°42' E 008°24'3 6.5 260 / 211004.2 3.0 1.6 4.9
2017-Dec-09 15:30N 53°39' E 008°25'5 9.1
2017-Dec-09 15:00N 53°36' E 008°31'037.7
2017-Dec-09 15:00N 53°36' E 008°30'4 9.0 240 / 161005.0 3.3 1.5 5.0
2017-Dec-09 14:30N 53°32' E 008°34'1 1.2
2017-Dec-09 14:00N 53°32' E 008°35'2274.1
2017-Dec-09 14:00N 53°30' E 008°36'2 4.4 260 / 81004.9 3.8 1.6 5.7
2017-Dec-09 13:30N 53°32' E 008°35'0 0.0
2017-Dec-09 13:00N 53°32' E 008°35'2191.6
2017-Dec-09 13:00N 53°30' E 008°36'2 4.4 260 / 61005.2 3.8 1.7 5.8
2017-Dec-09 12:30N 53°32' E 008°35'0 0.0
2017-Dec-09 12:00N 53°32' E 008°35'2191.6
2017-Dec-09 12:00N 53°30' E 008°36'2 4.4 250 / 41005.5 3.8 2.0 5.8
2017-Dec-09 11:30N 53°32' E 008°35'0 0.0
2017-Dec-09 11:00N 53°32' E 008°35'2156.4
2017-Dec-09 11:00N 53°30' E 008°36'2 4.4 260 / 41005.2 4.6 1.8 5.8
2017-Dec-09 10:30N 53°32' E 008°35'0 0.0
2017-Dec-09 10:00N 53°32' E 008°35'2191.6
2017-Dec-09 10:00N 53°30' E 008°36'2 4.4 1004.9 4.1 1.9 5.7
2017-Dec-09 09:30N 53°32' E 008°35'0 0.0
2017-Dec-09 09:00N 53°32' E 008°35'2196.5
2017-Dec-09 09:00N 53°30' E 008°36'2 4.4 260 / 61004.3 3.2 2.0 5.5
2017-Dec-09 08:30N 53°32' E 008°35'0 0.0
2017-Dec-09 08:00N 53°32' E 008°35'2196.5
2017-Dec-09 08:00N 53°30' E 008°36'2 4.4 260 / 61003.5 3.1 2.4 5.6
2017-Dec-09 07:30N 53°32' E 008°35'0 0.0
2017-Dec-09 07:00N 53°32' E 008°35'2196.5
2017-Dec-09 07:00N 53°30' E 008°36'2 4.4 260 / 61003.0 2.3 2.1 5.6
2017-Dec-09 06:30N 53°32' E 008°35'0 0.0
2017-Dec-09 06:00N 53°32' E 008°35'2156.4
2017-Dec-09 06:00N 53°30' E 008°36'2 4.4 260 / 61002.7 2.0 2.0 5.6
2017-Dec-09 05:30N 53°32' E 008°35'0 0.0
2017-Dec-09 05:00N 53°32' E 008°35'2191.6
2017-Dec-09 05:00N 53°30' E 008°36'2 4.4 260 / 81002.1 1.5 1.5 5.6
2017-Dec-09 04:30N 53°32' E 008°35'0 0.0
2017-Dec-09 04:00N 53°32' E 008°35'2196.5
2017-Dec-09 04:00N 53°30' E 008°36'2 4.4 250 / 81002.0 1.3 1.3 5.6
2017-Dec-09 03:30N 53°32' E 008°35'0 0.0
2017-Dec-09 03:00N 53°32' E 008°35'2196.5
2017-Dec-09 03:00N 53°30' E 008°36'2 4.3 250 / 81002.3 1.6 1.6 5.7
2017-Dec-09 02:30N 53°32' E 008°35'0 0.0
2017-Dec-09 02:00N 53°32' E 008°35'2191.6
2017-Dec-09 02:00N 53°30' E 008°36'2 4.4 250 / 61002.6 2.0 1.8 5.8
2017-Dec-09 01:30N 53°32' E 008°35'0 0.0
2017-Dec-09 01:00N 53°32' E 008°35'2196.5
2017-Dec-09 01:00N 53°30' E 008°36'2 4.4 240 / 61002.8 2.3 1.9 5.9
2017-Dec-09 00:30N 53°32' E 008°35'0 0.0
2017-Dec-09 00:00N 53°32' E 008°35'2196.5
2017-Dec-09 00:00N 53°30' E 008°36'2 4.3 260 / 81003.4 2.1 1.6 5.9
2017-Dec-08 23:30N 53°32' E 008°35'0 0.0
2017-Dec-08 23:00N 53°32' E 008°35'2196.5
2017-Dec-08 23:00N 53°30' E 008°36'2 4.4 240 / 61003.5 1.2 1.2 5.9
2017-Dec-08 22:30N 53°32' E 008°35'0 0.0
2017-Dec-08 22:00N 53°32' E 008°35'2196.5
2017-Dec-08 22:00N 53°30' E 008°36'2 4.4 200 / 61003.5 0.7 0.8 6.0
2017-Dec-08 21:30N 53°32' E 008°35'0 0.0
2017-Dec-08 21:00N 53°32' E 008°35'2201.7
2017-Dec-08 21:00N 53°30' E 008°36'2 4.4 220 / 61003.7 0.9 0.9 6.0
2017-Dec-08 20:30N 53°32' E 008°35'0 0.0
2017-Dec-08 20:00N 53°32' E 008°35'2196.5
2017-Dec-08 20:00N 53°30' E 008°36'2 4.4 250 / 41004.4 1.3 0.9 6.0
2017-Dec-08 19:30N 53°32' E 008°35'0 0.0
2017-Dec-08 19:00N 53°32' E 008°35'2196.5
2017-Dec-08 19:00N 53°30' E 008°36'2 4.4 240 / 61003.8 1.8 1.2 6.1
2017-Dec-08 18:30N 53°32' E 008°35'0 0.0
2017-Dec-08 18:00N 53°32' E 008°35'2196.5
2017-Dec-08 18:00N 53°30' E 008°36'2 4.4 240 / 61003.3 2.2 1.2 6.1
2017-Dec-08 17:30N 53°32' E 008°35'0 0.0
2017-Dec-08 17:00N 53°32' E 008°35'2196.5
2017-Dec-08 17:00N 53°30' E 008°36'2 4.4 240 / 61003.0 2.7 2.0 6.1
2017-Dec-08 16:30N 53°32' E 008°35'0 0.0
2017-Dec-08 16:00N 53°32' E 008°35'2196.5
2017-Dec-08 16:00N 53°30' E 008°36'2 4.4 240 / 61002.7 2.4 2.3 6.2
2017-Dec-08 15:30N 53°32' E 008°35'0 0.0
2017-Dec-08 15:00N 53°32' E 008°35'2191.6
2017-Dec-08 15:00N 53°30' E 008°36'2 4.4 240 / 81002.4 2.0 1.9 6.3
2017-Dec-08 14:30N 53°32' E 008°35'0 0.0
2017-Dec-08 14:00N 53°32' E 008°35'2196.5
2017-Dec-08 14:00N 53°30' E 008°36'2 4.4 230 / 41002.1 2.4 2.3 6.3
2017-Dec-08 13:30N 53°32' E 008°35'0 0.0
2017-Dec-08 13:00N 53°32' E 008°35'2196.5
2017-Dec-08 13:00N 53°30' E 008°36'2 4.4 250 / 41002.1 1.7 1.7 6.3
2017-Dec-08 12:30N 53°32' E 008°35'0 0.0
2017-Dec-08 12:00N 53°32' E 008°35'2191.6
2017-Dec-08 12:00N 53°30' E 008°36'2 4.4 260 / 61001.9 1.1 1.1 6.3
2017-Dec-08 11:30N 53°32' E 008°35'0 0.0
2017-Dec-08 11:00N 53°32' E 008°35'2201.7
2017-Dec-08 11:00N 53°30' E 008°36'2 4.4 260 / 61002.2 1.1 1.1 6.3
2017-Dec-08 10:30N 53°32' E 008°35'0 0.0
2017-Dec-08 10:00N 53°32' E 008°35'2196.5
2017-Dec-08 10:00N 53°30' E 008°36'2 4.4 260 / 101002.3 1.5 1.4 6.2
2017-Dec-08 09:30N 53°32' E 008°35'0 0.0
2017-Dec-08 09:00N 53°32' E 008°35'2196.5
2017-Dec-08 09:00N 53°30' E 008°36'2 4.4 260 / 61001.7 2.6 2.6 6.3
2017-Dec-08 08:30N 53°32' E 008°35'0 0.0
2017-Dec-08 08:00N 53°32' E 008°35'2196.5
2017-Dec-08 08:00N 53°30' E 008°36'   260 / 81001.8 2.1 1.8 6.3
Track history (hours):
 
Tides and Currents Weather Stations Pressure Air Temp Water Temp Dewpoint Dewpoint Depression Visibility Wind Speed Wind Dir Waves Ship Positions

Oceanographic research ship Heincke (Germany)

Detailed information on ship capabilities available from University of Delaware's Ocean Information Center and ARCUS's ALIAS (Arctic Logistics Information and Support) project.

Last reported at 2017-Dec-18 08:00 UTC. Time now 2017-Dec-18 09:16 UTC.
Position N 54°12' E 007°48'.

Length 54.6 m; beam 12.5 m; draft 4 m.

Type: Other ship. MMSI: 211208720.

Wind from 170 at 6 knots

Barometer 1020.9 mb
Air temperature 3.6 ° C
Dewpoint 1.8 ° C
Water temperature 7.3 ° C

Date/timePositionNaut miles runAvg speedWind from/ knotsBaromVisibWave heightAir tempDewpointWater temp
2017-Dec-18 08:00N 54°12' E 007°48'0 0.0 170 / 61020.9 3.6 1.8 7.3
2017-Dec-18 07:00N 54°12' E 007°48'6 6.0 180 / 101019.6 3.7 2.0 6.7
2017-Dec-18 06:00N 54°06' E 007°48'6 6.0 180 / 171018.2 3.1 1.9 6.9
2017-Dec-18 05:00N 54°12' E 007°48'6 6.0 180 / 191017.2 3.2 1.6 7.2
2017-Dec-18 04:00N 54°18' E 007°48'1212.0 180 / 231016.1 3.5 2.2 7.0
2017-Dec-18 03:00N 54°30' E 007°48'6 6.0 180 / 271015.4 3.7 2.6 6.2
2017-Dec-18 02:00N 54°36' E 007°48'7 6.9 180 / 271014.9 3.6 2.1 5.7
2017-Dec-18 01:00N 54°42' E 007°54'7 6.9 190 / 271015.0 3.5 2.3 6.2
2017-Dec-18 00:00N 54°48' E 008°00'9 9.2 200 / 271015.1 4.2 2.5 6.1
2017-Dec-17 23:00N 54°54' E 008°12'0 0.0 190 / 251015.4 5.2 3.5 5.4
2017-Dec-17 22:00N 54°54' E 008°12'0 0.0 200 / 211016.4 5.5 3.8 5.4
2017-Dec-17 21:00N 54°54' E 008°12'0 0.0 210 / 211016.7 5.7 3.5 5.4
2017-Dec-17 20:00N 54°54' E 008°12'0 0.0 190 / 171016.8 5.6 3.2 5.4
2017-Dec-17 19:00N 54°54' E 008°12'0 0.0 200 / 161017.0 5.9 3.4 5.5
2017-Dec-17 18:00N 54°54' E 008°12'0 0.0 190 / 141017.6 5.6 3.1 5.5
2017-Dec-17 17:00N 54°54' E 008°12'0 0.0 190 / 191017.6 5.0 3.5 5.5
2017-Dec-17 16:00N 54°54' E 008°12'0 0.0 190 / 171018.2 4.9 3.2 5.5
2017-Dec-17 15:00N 54°54' E 008°12'0 0.0 190 / 141019.0 4.7 2.9 5.4
2017-Dec-17 14:00N 54°54' E 008°12'0 0.0 190 / 141019.2 4.4 2.3 5.3
2017-Dec-17 13:00N 54°54' E 008°12'0 0.0 190 / 121019.4 4.5 1.3 5.2
2017-Dec-17 12:00N 54°54' E 008°12'0 0.0 190 / 101019.5 4.1 0.4 5.2
2017-Dec-17 11:00N 54°54' E 008°12'0 0.0 180 / 81019.8 4.4-0.2 5.3
2017-Dec-17 10:00N 54°54' E 008°12'0 0.0 160 / 41019.9 3.2-0.3 5.2
2017-Dec-17 09:00N 54°54' E 008°12'0 0.0 090 / 61019.1 3.6 0.4 5.2
2017-Dec-17 08:00N 54°54' E 008°12'0 0.0 040 / 101018.8 3.5 0.4 5.3
2017-Dec-17 07:00N 54°54' E 008°12'0 0.0 030 / 121018.2 3.4 0.8 5.2
2017-Dec-17 06:00N 54°54' E 008°12'0 0.0 020 / 141017.4 4.1 1.3 5.3
2017-Dec-17 05:00N 54°54' E 008°12'0 0.0 360 / 161017.0 4.5 1.4 5.4
2017-Dec-17 04:00N 54°54' E 008°12'0 0.0 010 / 141015.7 4.0 0.6 5.5
2017-Dec-17 03:00N 54°54' E 008°12'0 0.0 350 / 171015.1 4.2 0.1 5.4
2017-Dec-17 02:00N 54°54' E 008°12'0 0.0 360 / 171014.3 4.1 0.2 5.3
2017-Dec-17 01:00N 54°54' E 008°12'0 0.0 010 / 171013.6 4.4-0.5 5.3
2017-Dec-17 00:00N 54°54' E 008°12'0 0.0 010 / 161012.5 4.1-2.3 5.3
2017-Dec-16 23:00N 54°54' E 008°12'0 0.0 010 / 141011.5 4.4-0.8 5.3
2017-Dec-16 22:00N 54°54' E 008°12'0 0.0 360 / 161010.6 4.9 0.1 5.4
2017-Dec-16 21:00N 54°54' E 008°12'0 0.0 350 / 141009.9 5.2 1.3 5.4
2017-Dec-16 20:00N 54°54' E 008°12'0 0.0 350 / 121009.6 5.3 1.1 5.4
2017-Dec-16 19:00N 54°54' E 008°12'0 0.0 340 / 171008.8 5.7 1.1 5.3
2017-Dec-16 18:00N 54°54' E 008°12'0 0.0 320 / 161008.2 5.3 1.4 5.3
2017-Dec-16 17:00N 54°54' E 008°12'0 0.0 320 / 211007.6 4.9 1.3 5.4
2017-Dec-16 16:00N 54°54' E 008°12'0 0.0 320 / 211006.8 4.6 1.6 5.5
2017-Dec-16 15:00N 54°54' E 008°12'236.4 310 / 191005.9 5.5-0.0 5.4
2017-Dec-16 14:56N 54°56' E 008°11'2 2.4
2017-Dec-16 14:00N 54°54' E 008°12'0 0.0 310 / 171005.2 6.1 1.8 5.3
2017-Dec-16 13:00N 54°54' E 008°12'0 0.0 310 / 141004.9 6.2 1.7 5.4
2017-Dec-16 12:00N 54°54' E 008°12'0 0.0 290 / 141004.5 5.4 1.8 5.3
2017-Dec-16 11:00N 54°54' E 008°12'0 0.0 290 / 141004.0 5.6 2.3 5.4
2017-Dec-16 10:00N 54°54' E 008°12'0 0.0 310 / 121003.7 5.6 1.4 5.4
2017-Dec-16 09:00N 54°54' E 008°12'2 3.6 320 / 141003.3 5.6 1.1 5.4
2017-Dec-16 08:28N 54°56' E 008°11'2 4.0
2017-Dec-16 08:00N 54°54' E 008°12'0 0.0 320 / 141002.7 5.4 1.9 5.3
2017-Dec-16 07:00N 54°54' E 008°12'0 0.0 310 / 141002.1 5.5 2.1 5.3
2017-Dec-16 06:00N 54°54' E 008°12'0 0.0 310 / 101001.6 5.5 1.8 5.3
2017-Dec-16 05:00N 54°54' E 008°12'0 0.0 320 / 121001.0 5.3 1.9 5.3
2017-Dec-16 04:00N 54°54' E 008°12'0 0.0 320 / 141000.9 5.7 2.0 5.3
2017-Dec-16 03:00N 54°54' E 008°12'0 0.0 330 / 121000.4 6.1 2.5 5.3
2017-Dec-16 02:00N 54°54' E 008°12'0 0.0 320 / 14999.7 5.9 2.6 5.4
2017-Dec-16 01:00N 54°54' E 008°12'0 0.0 320 / 19999.1 5.8 2.4 5.4
2017-Dec-16 00:00N 54°54' E 008°12'0 0.0 020 / 6999.3 4.7 1.7 5.4
2017-Dec-15 23:00N 54°54' E 008°12'0 0.0 330 / 10999.0 6.2 2.1 5.3
2017-Dec-15 22:00N 54°54' E 008°12'0 0.0 320 / 10998.4 6.3 1.8 5.3
2017-Dec-15 21:00N 54°54' E 008°12'0 0.0 310 / 4998.3 4.5 2.5 5.3
2017-Dec-15 20:00N 54°54' E 008°12'9 9.2 240 / 8997.7 5.6 3.3 5.3
2017-Dec-15 19:00N 54°48' E 008°00'1010.4 290 / 4997.6 6.0 3.1 6.6
2017-Dec-15 18:00N 54°48' E 007°42'910.1 250 / 12997.2 5.6 3.4 7.5
2017-Dec-15 17:08N 54°43' E 007°30'425.7
2017-Dec-15 17:00N 54°42' E 007°24'2336.4 220 / 8997.0 5.2 3.1 8.1
2017-Dec-15 16:59N 54°42' E 007°28'511.0
2017-Dec-15 16:29N 54°40' E 007°19'817.0
2017-Dec-15 16:00N 54°36' E 007°06'0 0.0 240 / 10996.5 5.8 3.0 8.3
2017-Dec-15 15:00N 54°36' E 007°06'0 0.0 320 / 12996.2 4.2 2.7 8.3
2017-Dec-15 14:00N 54°36' E 007°06'0 0.0 240 / 16995.0 5.9 3.9 8.3
2017-Dec-15 13:00N 54°36' E 007°06'0 0.0 230 / 14994.3 5.6 3.5 8.3
2017-Dec-15 12:00N 54°36' E 007°06'0 0.0 230 / 16993.9 5.9 3.5 8.3
2017-Dec-15 11:00N 54°36' E 007°06'0 0.0 220 / 16993.4 5.5 3.0 8.4
2017-Dec-15 10:00N 54°36' E 007°06'0 0.0 220 / 17992.8 4.7 2.3 8.4
2017-Dec-15 09:00N 54°36' E 007°06'0 0.0 230 / 17991.8 6.0 3.2 8.4
2017-Dec-15 08:00N 54°36' E 007°06'0 0.0 220 / 14991.1 6.5 2.8 8.4
2017-Dec-15 07:00N 54°36' E 007°06'3 3.5 210 / 12990.3 6.2 3.6 8.4
2017-Dec-15 06:00N 54°36' E 007°00'9 9.2 220 / 14989.4 6.2 3.5 8.4
2017-Dec-15 05:00N 54°42' E 006°48'1212.0 240 / 16988.6 7.1 0.9 8.7
2017-Dec-15 04:00N 54°48' E 006°30'1212.0 240 / 16987.6 7.1 0.5 9.0
2017-Dec-15 03:00N 54°54' E 006°12'7 6.9 250 / 12987.1 7.2-0.2 9.1
2017-Dec-15 02:00N 54°54' E 006°00'1212.0
2017-Dec-15 01:00N 55°00' E 005°42'4 4.4 230 / 19985.7 7.3 2.1 9.2
2017-Dec-15 00:07N 55°02' E 005°36'541.4
2017-Dec-15 00:00N 55°06' E 005°30'1010.3 240 / 16985.3 7.0 2.8 8.8
2017-Dec-14 23:00N 55°06' E 005°12'9 9.1 240 / 23984.4 6.4 3.0 8.5
2017-Dec-14 22:00N 55°12' E 005°00'1211.9 240 / 25984.1 6.0 2.8 8.5
2017-Dec-14 21:00N 55°18' E 004°42'7 6.8 240 / 21983.7 6.4 3.1 8.4
2017-Dec-14 20:00N 55°18' E 004°30'9 9.1 230 / 16982.9 6.5 3.6 7.9
2017-Dec-14 19:00N 55°24' E 004°18'3 3.4 240 / 19982.5 6.5 3.3 7.8
2017-Dec-14 18:00N 55°24' E 004°12'7 6.9 200 / 10982.6 4.9 2.6 7.8
2017-Dec-14 17:00N 55°30' E 004°06'3 3.4 230 / 21982.1 5.0 2.4 7.9
2017-Dec-14 16:00N 55°30' E 004°00'7 6.9 220 / 21982.0 5.9 2.8 8.0
2017-Dec-14 15:00N 55°36' E 003°54'9 9.0 230 / 19981.9 6.1 1.5 8.1
2017-Dec-14 14:00N 55°42' E 003°42'7 6.9 240 / 21981.9 6.4 1.5 8.0
2017-Dec-14 13:00N 55°36' E 003°48'3 3.4 240 / 21 5.9 1.9
2017-Dec-14 12:00N 55°36' E 003°54'9 9.1 250 / 21 6.4 1.3
2017-Dec-14 11:00N 55°30' E 004°06'3 3.4 250 / 21 6.2 2.0
2017-Dec-14 10:00N 55°30' E 004°12'7 6.9 260 / 23982.6 6.2 2.1 7.8
2017-Dec-14 09:00N 55°24' E 004°18'0 0.0 260 / 23982.1 6.1 1.8 7.7
2017-Dec-14 08:00N 55°24' E 004°18'7 6.9 270 / 21981.5 6.2 1.7 7.8
2017-Dec-14 07:00N 55°30' E 004°12'3 3.4 270 / 19981.1 6.3 1.5 7.8
2017-Dec-14 06:00N 55°30' E 004°06'7 6.9 270 / 21980.7 5.6 1.8 7.9
2017-Dec-14 05:00N 55°36' E 004°00'7 6.8 280 / 19980.4 6.2-1.1 8.1
2017-Dec-14 04:00N 55°36' E 003°48'7 6.9 280 / 19980.1 6.0 1.1 8.1
2017-Dec-14 03:00N 55°42' E 003°42'9 9.0 270 / 27979.5 5.8-1.2 8.0
2017-Dec-14 02:00N 55°36' E 003°54'3 3.4 270 / 19979.4 6.3 1.7 8.1
2017-Dec-14 01:00N 55°36' E 004°00'7 6.9 310 / 21979.0 5.7 2.5 8.0
2017-Dec-14 00:00N 55°30' E 004°06'3 3.4 280 / 25978.7 6.4 1.1 7.9
2017-Dec-13 23:00N 55°30' E 004°12'7 6.9 290 / 31978.4 5.0 1.1 7.7
2017-Dec-13 22:00N 55°24' E 004°18'0 0.0 270 / 19978.5 6.5 4.2 8.0
2017-Dec-13 21:00N 55°24' E 004°18'3 3.4 290 / 25978.9 4.9 3.9 8.0
2017-Dec-13 20:00N 55°24' E 004°12'7 6.9 270 / 19979.4 6.5 4.3 7.8
2017-Dec-13 19:00N 55°30' E 004°06'7 6.9 250 / 23979.8 6.4 4.5 7.8
2017-Dec-13 18:00N 55°36' E 004°00'3 3.4 220 / 25980.3 6.7 5.4 8.0
2017-Dec-13 17:00N 55°36' E 003°54'9 9.0 210 / 23981.3 7.3 5.8 8.1
2017-Dec-13 16:00N 55°42' E 003°42'7 6.9 210 / 25982.6 7.0 5.4 8.1
2017-Dec-13 15:00N 55°36' E 003°48'3 3.4 220 / 25984.6 7.2 5.5 8.1
2017-Dec-13 14:00N 55°36' E 003°54'9 9.1 210 / 21986.0 7.3 5.6 8.0
2017-Dec-13 13:00N 55°30' E 004°06'3 3.4 220 / 21987.7 7.1 5.2 7.8
2017-Dec-13 12:00N 55°30' E 004°12'7 6.9 230 / 21989.2 7.2 4.9 7.9
2017-Dec-13 11:00N 55°24' E 004°18'3 3.4 230 / 19990.4 7.3 4.7 8.0
2017-Dec-13 10:00N 55°24' E 004°12'0 0.0 230 / 23991.0 7.3 5.1 8.0
2017-Dec-13 09:00N 55°24' E 004°12'0 0.0 240 / 23991.5 7.3 4.9 8.0
2017-Dec-13 08:00N 55°24' E 004°12'0 0.0 240 / 25992.1 7.3 5.0 8.0
2017-Dec-13 07:00N 55°24' E 004°12'0 0.0 240 / 23992.7 7.3 4.4 8.0
2017-Dec-13 06:00N 55°24' E 004°12'0 0.0 240 / 29993.3 7.3 5.1 7.9
2017-Dec-13 05:00N 55°24' E 004°12'0 0.0 210 / 37993.3 6.6 4.9 7.9
2017-Dec-13 04:00N 55°24' E 004°12'0 0.0 210 / 37994.7 6.2 4.2 7.9
2017-Dec-13 03:00N 55°24' E 004°12'3 3.4 210 / 35996.2 6.6 3.3 7.9
2017-Dec-13 02:00N 55°24' E 004°18'3 3.4 210 / 35997.9 6.9 3.8 7.9
2017-Dec-13 01:00N 55°24' E 004°24'3 3.4 220 / 31998.6 6.8 2.6 8.0
2017-Dec-13 00:00N 55°24' E 004°18'9 9.1 220 / 29999.7 6.5 2.7 7.9
2017-Dec-12 23:00N 55°30' E 004°06'7 6.9 220 / 271000.5 6.3 2.1 7.9
2017-Dec-12 22:00N 55°36' E 004°00'3 3.4 230 / 291000.9 6.2 4.2 8.0
2017-Dec-12 21:00N 55°36' E 003°54'7 6.9 240 / 271001.5 6.1 2.8 8.0
2017-Dec-12 20:00N 55°42' E 003°48'0 0.0 230 / 251001.5 6.6 1.9 8.1
2017-Dec-12 19:00N 55°42' E 003°48'7 6.9 230 / 271002.1 6.1 2.1 8.1
2017-Dec-12 18:00N 55°36' E 003°54'7 6.9 240 / 271002.5 6.7 1.5 8.0
2017-Dec-12 17:00N 55°30' E 004°00'7 6.8 250 / 251002.6 6.8 2.2 7.9
2017-Dec-12 16:00N 55°30' E 004°12'7 6.9 240 / 231002.6 6.4 2.8 7.9
2017-Dec-12 15:00N 55°24' E 004°18'3 3.4 260 / 171002.7 6.6 2.9 7.9
2017-Dec-12 14:00N 55°24' E 004°24'3 3.4 250 / 211002.1 6.9 2.0 8.0
2017-Dec-12 13:00N 55°24' E 004°18'9 9.1 260 / 161002.0 6.8 0.9 7.9
2017-Dec-12 12:00N 55°30' E 004°06'7 6.9 270 / 121001.9 6.6 0.3 7.9
2017-Dec-12 11:00N 55°36' E 004°00'3 3.4 290 / 121001.8 6.4-1.5 8.0
2017-Dec-12 10:00N 55°36' E 003°54'7 6.9 310 / 81001.2 6.4-1.8 8.0
2017-Dec-12 09:00N 55°42' E 003°48'0 0.0 340 / 121000.6 6.5-1.1 8.1
2017-Dec-12 08:00N 55°42' E 003°48'7 6.9 340 / 141000.1 5.9-0.7 8.1
2017-Dec-12 07:00N 55°36' E 003°54'3 3.4 350 / 17999.2 5.5-2.0 8.1
2017-Dec-12 06:00N 55°36' E 004°00'9 9.1 010 / 19998.1 5.2-1.3 8.0
2017-Dec-12 05:00N 55°30' E 004°12'7 6.9 010 / 23996.8 5.1-1.3 8.0
2017-Dec-12 04:00N 55°24' E 004°18'3 3.4 010 / 25995.4 5.1-1.8 7.9
2017-Dec-12 03:00N 55°24' E 004°24'9 9.1 010 / 27994.8 5.1-1.2 8.0
2017-Dec-12 02:00N 55°30' E 004°12'3 3.4 020 / 31993.9 5.2 0.2 8.0
2017-Dec-12 01:00N 55°30' E 004°06'7 6.9 020 / 25993.2 5.2-0.5 8.1
2017-Dec-12 00:00N 55°36' E 004°00'3 3.4 020 / 14993.6 3.5 1.8 8.1
2017-Dec-11 23:00N 55°36' E 003°54'7 6.9 020 / 23993.4 4.5 0.4 8.1
2017-Dec-11 22:00N 55°42' E 003°48'7 6.9 020 / 14992.8 5.1 0.2 8.2
2017-Dec-11 21:00N 55°36' E 003°54'3 3.4 030 / 12992.2 3.3 0.5 8.1
2017-Dec-11 20:00N 55°36' E 004°00'7 6.9 030 / 23991.2 3.2 1.3 8.1
2017-Dec-11 19:00N 55°30' E 004°06'3 3.4 050 / 17990.2 5.3-0.5 8.1
2017-Dec-11 18:00N 55°30' E 004°12'7 6.9 020 / 16989.6 4.5 0.5 8.1
2017-Dec-11 17:00N 55°24' E 004°18'3 3.4 050 / 16989.1 4.9-1.4 8.0
2017-Dec-11 16:00N 55°24' E 004°24'3 3.4 070 / 16988.7 4.6-1.8 8.1
2017-Dec-11 15:00N 55°24' E 004°18'7 6.9 080 / 17988.4 4.6-4.7 8.0
2017-Dec-11 14:00N 55°30' E 004°12'3 3.4 090 / 19987.6 4.9-2.4 8.1
2017-Dec-11 13:00N 55°30' E 004°06'7 6.9 100 / 19987.5 4.9-1.5 8.1
2017-Dec-11 12:00N 55°36' E 004°00'3 3.4 060 / 14987.9 4.4 1.0 8.2
2017-Dec-11 11:00N 55°36' E 003°54'7 6.9 060 / 12988.2 3.9 1.3 8.2
2017-Dec-11 10:00N 55°42' E 003°48'7 6.9 070 / 10988.1 3.9 0.4 8.2
2017-Dec-11 09:00N 55°36' E 003°54'3 3.4 080 / 16987.2 3.2 1.0 8.2
2017-Dec-11 08:00N 55°36' E 004°00'7 6.9 040 / 16986.0 3.8 0.4 8.2
2017-Dec-11 07:00N 55°30' E 004°06'3 3.4 030 / 19985.7 2.9 1.0 8.2
2017-Dec-11 06:00N 55°30' E 004°12'7 6.9 030 / 10986.1 3.3 0.7 8.1
2017-Dec-11 05:00N 55°24' E 004°18'3 3.4 360 / 14985.2 3.0 1.0 8.1
2017-Dec-11 04:00N 55°24' E 004°24'3 3.4 020 / 10984.7 3.6 1.3 8.1
2017-Dec-11 03:00N 55°24' E 004°18'7 6.9 030 / 14983.9 3.5 1.0 8.1
2017-Dec-11 02:00N 55°30' E 004°12'3 3.4 030 / 12983.3 3.7 0.1 8.1
2017-Dec-11 01:00N 55°30' E 004°06'7 6.9 010 / 10982.6 3.8-0.0 8.2
2017-Dec-11 00:00N 55°36' E 004°00'7 6.9 020 / 21982.0 2.2 0.4 8.2
2017-Dec-10 23:00N 55°42' E 003°54'3 3.4 030 / 17981.5 2.6 0.8 8.3
2017-Dec-10 22:00N 55°42' E 003°48'3 3.4 060 / 12980.7 3.7-1.2 8.4
2017-Dec-10 21:00N 55°42' E 003°54'7 6.9 060 / 14980.3 3.5-0.8 8.3
2017-Dec-10 20:00N 55°36' E 004°00'7 6.9 070 / 19979.7 1.9 0.7 8.2
2017-Dec-10 19:00N 55°30' E 004°06'3 3.4 090 / 17979.3 3.0 0.7 8.2
2017-Dec-10 18:00N 55°30' E 004°12'9 9.1 060 / 10979.0 4.3-1.8 8.2
2017-Dec-10 17:00N 55°24' E 004°24'3 3.4 080 / 12979.0 4.3-1.8 8.2
2017-Dec-10 16:00N 55°24' E 004°30'9 9.1 090 / 10979.6 4.0-2.5 8.3
2017-Dec-10 15:00N 55°18' E 004°42'9 9.1 070 / 8979.5 4.0-2.0 8.5
2017-Dec-10 14:00N 55°12' E 004°54'9 9.1 110 / 12980.2 3.7-0.8 9.1
2017-Dec-10 13:00N 55°06' E 005°06'1211.9 120 / 10981.5 3.3-0.1 9.2
2017-Dec-10 12:00N 55°00' E 005°24'7 6.9 080 / 6982.8 2.6-0.0 9.7
2017-Dec-10 11:00N 55°00' E 005°36'9 9.1 984.2 3.3-0.6 9.6
2017-Dec-10 10:00N 54°54' E 005°48'9 9.2 220 / 6985.9 4.2-1.3 9.9
2017-Dec-10 09:00N 54°48' E 006°00'1212.0 260 / 6987.5 3.1-0.4 9.7
2017-Dec-10 08:00N 54°42' E 006°18'9 9.2 210 / 21988.4 3.6 0.7 9.7
2017-Dec-10 07:00N 54°36' E 006°30'9 9.2 230 / 21990.1 3.4 1.4 9.6
2017-Dec-10 06:00N 54°30' E 006°42'3 3.5 230 / 25991.2 3.6 1.8 9.5
2017-Dec-10 05:00N 54°30' E 006°48'7 6.9 220 / 29992.5 2.8 2.0 9.3
2017-Dec-10 04:00N 54°24' E 006°54'7 7.0 260 / 16994.1 4.5-0.3 9.1
2017-Dec-10 03:00N 54°24' E 007°06'7 6.9 280 / 27995.3 2.2 0.4 8.8
2017-Dec-10 02:00N 54°18' E 007°12'0 0.0 280 / 21996.6 2.8 2.6 8.8
2017-Dec-10 01:00N 54°18' E 007°12'4 3.5 270 / 21997.6 2.5 2.3 8.5
2017-Dec-10 00:00N 54°18' E 007°18'7 6.9 260 / 23998.4 3.9-0.3 8.4
2017-Dec-09 23:00N 54°12' E 007°24'7 7.0 270 / 21999.4 2.9 0.9 8.5
2017-Dec-09 22:00N 54°06' E 007°30'4 3.5 270 / 291000.3 3.1 2.8 8.5
2017-Dec-09 21:00N 54°06' E 007°36'1312.5 260 / 331001.2 3.7 2.3 8.6
2017-Dec-09 20:00N 53°54' E 007°42'4 3.5 270 / 231002.1 4.0 2.1 8.1
2017-Dec-09 19:00N 53°54' E 007°48'1 4.5 280 / 251002.2 3.6 1.7 7.8
2017-Dec-09 18:45N 53°53' E 007°47'1 5.9
2017-Dec-09 18:30N 53°53' E 007°50'612.3
2017-Dec-09 18:00N 53°54' E 008°00'3131.8 220 / 251002.8 2.8 2.7 6.9
2017-Dec-09 17:58N 53°52' E 007°57'5 9.7
2017-Dec-09 17:30N 53°51' E 008°04'2 4.7
2017-Dec-09 17:00N 53°49' E 008°07'3271.6
2017-Dec-09 17:00N 53°48' E 008°12'3 6.3 250 / 211003.6 3.0 2.5 6.3
2017-Dec-09 16:30N 53°45' E 008°13'5 9.7
2017-Dec-09 16:00N 53°42' E 008°20'3233.2
2017-Dec-09 16:00N 53°42' E 008°24'3 6.5 260 / 211004.2 3.0 1.6 4.9
2017-Dec-09 15:30N 53°39' E 008°25'5 9.1
2017-Dec-09 15:00N 53°36' E 008°31'037.7
2017-Dec-09 15:00N 53°36' E 008°30'4 9.0 240 / 161005.0 3.3 1.5 5.0
2017-Dec-09 14:30N 53°32' E 008°34'1 1.2
2017-Dec-09 14:00N 53°32' E 008°35'2274.1
2017-Dec-09 14:00N 53°30' E 008°36'2 4.4 260 / 81004.9 3.8 1.6 5.7
2017-Dec-09 13:30N 53°32' E 008°35'0 0.0
2017-Dec-09 13:00N 53°32' E 008°35'2191.6
2017-Dec-09 13:00N 53°30' E 008°36'2 4.4 260 / 61005.2 3.8 1.7 5.8
2017-Dec-09 12:30N 53°32' E 008°35'0 0.0
2017-Dec-09 12:00N 53°32' E 008°35'2191.6
2017-Dec-09 12:00N 53°30' E 008°36'2 4.4 250 / 41005.5 3.8 2.0 5.8
2017-Dec-09 11:30N 53°32' E 008°35'0 0.0
2017-Dec-09 11:00N 53°32' E 008°35'2156.4
2017-Dec-09 11:00N 53°30' E 008°36'2 4.4 260 / 41005.2 4.6 1.8 5.8
2017-Dec-09 10:30N 53°32' E 008°35'0 0.0
2017-Dec-09 10:00N 53°32' E 008°35'2191.6
2017-Dec-09 10:00N 53°30' E 008°36'2 4.4 1004.9 4.1 1.9 5.7
2017-Dec-09 09:30N 53°32' E 008°35'0 0.0
2017-Dec-09 09:00N 53°32' E 008°35'2196.5
2017-Dec-09 09:00N 53°30' E 008°36'2 4.4 260 / 61004.3 3.2 2.0 5.5
2017-Dec-09 08:30N 53°32' E 008°35'0 0.0
2017-Dec-09 08:00N 53°32' E 008°35'2196.5
2017-Dec-09 08:00N 53°30' E 008°36'2 4.4 260 / 61003.5 3.1 2.4 5.6
2017-Dec-09 07:30N 53°32' E 008°35'0 0.0
2017-Dec-09 07:00N 53°32' E 008°35'2196.5
2017-Dec-09 07:00N 53°30' E 008°36'2 4.4 260 / 61003.0 2.3 2.1 5.6
2017-Dec-09 06:30N 53°32' E 008°35'0 0.0
2017-Dec-09 06:00N 53°32' E 008°35'2156.4
2017-Dec-09 06:00N 53°30' E 008°36'2 4.4 260 / 61002.7 2.0 2.0 5.6
2017-Dec-09 05:30N 53°32' E 008°35'0 0.0
2017-Dec-09 05:00N 53°32' E 008°35'2191.6
2017-Dec-09 05:00N 53°30' E 008°36'2 4.4 260 / 81002.1 1.5 1.5 5.6
2017-Dec-09 04:30N 53°32' E 008°35'0 0.0
2017-Dec-09 04:00N 53°32' E 008°35'2196.5
2017-Dec-09 04:00N 53°30' E 008°36'2 4.4 250 / 81002.0 1.3 1.3 5.6
2017-Dec-09 03:30N 53°32' E 008°35'0 0.0
2017-Dec-09 03:00N 53°32' E 008°35'2196.5
2017-Dec-09 03:00N 53°30' E 008°36'2 4.3 250 / 81002.3 1.6 1.6 5.7
2017-Dec-09 02:30N 53°32' E 008°35'0 0.0
2017-Dec-09 02:00N 53°32' E 008°35'2191.6
2017-Dec-09 02:00N 53°30' E 008°36'2 4.4 250 / 61002.6 2.0 1.8 5.8
2017-Dec-09 01:30N 53°32' E 008°35'0 0.0
2017-Dec-09 01:00N 53°32' E 008°35'2196.5
2017-Dec-09 01:00N 53°30' E 008°36'2 4.4 240 / 61002.8 2.3 1.9 5.9
2017-Dec-09 00:30N 53°32' E 008°35'0 0.0
2017-Dec-09 00:00N 53°32' E 008°35'2196.5
2017-Dec-09 00:00N 53°30' E 008°36'2 4.3 260 / 81003.4 2.1 1.6 5.9
2017-Dec-08 23:30N 53°32' E 008°35'0 0.0
2017-Dec-08 23:00N 53°32' E 008°35'2196.5
2017-Dec-08 23:00N 53°30' E 008°36'2 4.4 240 / 61003.5 1.2 1.2 5.9
2017-Dec-08 22:30N 53°32' E 008°35'0 0.0
2017-Dec-08 22:00N 53°32' E 008°35'2196.5
2017-Dec-08 22:00N 53°30' E 008°36'2 4.4 200 / 61003.5 0.7 0.8 6.0
2017-Dec-08 21:30N 53°32' E 008°35'0 0.0
2017-Dec-08 21:00N 53°32' E 008°35'2201.7
2017-Dec-08 21:00N 53°30' E 008°36'2 4.4 220 / 61003.7 0.9 0.9 6.0
2017-Dec-08 20:30N 53°32' E 008°35'0 0.0
2017-Dec-08 20:00N 53°32' E 008°35'2196.5
2017-Dec-08 20:00N 53°30' E 008°36'2 4.4 250 / 41004.4 1.3 0.9 6.0
2017-Dec-08 19:30N 53°32' E 008°35'0 0.0
2017-Dec-08 19:00N 53°32' E 008°35'2196.5
2017-Dec-08 19:00N 53°30' E 008°36'2 4.4 240 / 61003.8 1.8 1.2 6.1
2017-Dec-08 18:30N 53°32' E 008°35'0 0.0
2017-Dec-08 18:00N 53°32' E 008°35'2196.5
2017-Dec-08 18:00N 53°30' E 008°36'2 4.4 240 / 61003.3 2.2 1.2 6.1
2017-Dec-08 17:30N 53°32' E 008°35'0 0.0
2017-Dec-08 17:00N 53°32' E 008°35'2196.5
2017-Dec-08 17:00N 53°30' E 008°36'2 4.4 240 / 61003.0 2.7 2.0 6.1
2017-Dec-08 16:30N 53°32' E 008°35'0 0.0
2017-Dec-08 16:00N 53°32' E 008°35'2196.5
2017-Dec-08 16:00N 53°30' E 008°36'2 4.4 240 / 61002.7 2.4 2.3 6.2
2017-Dec-08 15:30N 53°32' E 008°35'0 0.0
2017-Dec-08 15:00N 53°32' E 008°35'2191.6
2017-Dec-08 15:00N 53°30' E 008°36'2 4.4 240 / 81002.4 2.0 1.9 6.3
2017-Dec-08 14:30N 53°32' E 008°35'0 0.0
2017-Dec-08 14:00N 53°32' E 008°35'2196.5
2017-Dec-08 14:00N 53°30' E 008°36'2 4.4 230 / 41002.1 2.4 2.3 6.3
2017-Dec-08 13:30N 53°32' E 008°35'0 0.0
2017-Dec-08 13:00N 53°32' E 008°35'2196.5
2017-Dec-08 13:00N 53°30' E 008°36'2 4.4 250 / 41002.1 1.7 1.7 6.3
2017-Dec-08 12:30N 53°32' E 008°35'0 0.0
2017-Dec-08 12:00N 53°32' E 008°35'2191.6
2017-Dec-08 12:00N 53°30' E 008°36'2 4.4 260 / 61001.9 1.1 1.1 6.3
2017-Dec-08 11:30N 53°32' E 008°35'0 0.0
2017-Dec-08 11:00N 53°32' E 008°35'2201.7
2017-Dec-08 11:00N 53°30' E 008°36'2 4.4 260 / 61002.2 1.1 1.1 6.3
2017-Dec-08 10:30N 53°32' E 008°35'0 0.0
2017-Dec-08 10:00N 53°32' E 008°35'2196.5
2017-Dec-08 10:00N 53°30' E 008°36'2 4.4 260 / 101002.3 1.5 1.4 6.2
2017-Dec-08 09:30N 53°32' E 008°35'0 0.0
2017-Dec-08 09:00N 53°32' E 008°35'2196.5
2017-Dec-08 09:00N 53°30' E 008°36'2 4.4 260 / 61001.7 2.6 2.6 6.3
2017-Dec-08 08:30N 53°32' E 008°35'0 0.0
2017-Dec-08 08:00N 53°32' E 008°35'2196.5
2017-Dec-08 08:00N 53°30' E 008°36'   260 / 81001.8 2.1 1.8 6.3

Dump ship's entire track history